Time;durP1;ratioP1;P1;durP2;ratioP2;P2;SDS_P1;SDS_P2;PMS_P1;PMS_P2;Temp;Humidity;BMP_temperature;BMP_pressure;BME280_temperature;BME280_humidity;BME280_pressure;Samples;Min_cycle;Max_cycle;Signal;HPM_P1;HPM_P2
2021/07/04 00:02:07;;;;;;;20.08;16.95;;;18.40;97.60;;;;;;4994056;28;20042;-82
2021/07/04 00:04:33;;;;;;;21.90;17.17;;;18.40;97.60;;;;;;5012775;28;20315;-83
2021/07/04 00:06:59;;;;;;;20.58;16.98;;;18.40;97.70;;;;;;5012359;28;20037;-82
2021/07/04 00:09:25;;;;;;;21.05;17.75;;;18.30;97.70;;;;;;5012775;28;20480;-83
2021/07/04 00:11:51;;;;;;;19.60;17.17;;;18.30;97.80;;;;;;4994710;28;20057;-82
2021/07/04 00:14:18;;;;;;;21.20;18.13;;;18.30;97.90;;;;;;5011523;28;20402;-82
2021/07/04 00:16:45;;;;;;;20.80;17.45;;;18.30;98.00;;;;;;4979497;28;20045;-81
2021/07/04 00:19:11;;;;;;;22.60;17.80;;;18.30;98.00;;;;;;5030150;28;20041;-83
2021/07/04 00:21:37;;;;;;;23.80;17.75;;;18.20;98.10;;;;;;4996625;28;20117;-82
2021/07/04 00:24:03;;;;;;;25.65;18.42;;;18.20;98.20;;;;;;5003513;28;20045;-82
2021/07/04 00:26:29;;;;;;;21.95;17.65;;;18.20;98.20;;;;;;5010165;28;20026;-82
2021/07/04 00:28:55;;;;;;;30.50;19.98;;;18.20;98.30;;;;;;5012177;28;20084;-82
2021/07/04 00:31:21;;;;;;;27.67;19.08;;;18.20;98.50;;;;;;5013102;28;20041;-82
2021/07/04 00:33:47;;;;;;;29.05;19.60;;;18.20;98.60;;;;;;4995367;28;20525;-82
2021/07/04 00:36:13;;;;;;;22.35;18.73;;;18.20;98.90;;;;;;5014309;28;20033;-83
2021/07/04 00:38:39;;;;;;;30.85;18.35;;;18.10;98.70;;;;;;5000343;28;20037;-83
2021/07/04 00:41:05;;;;;;;30.30;19.38;;;18.10;98.70;;;;;;5002345;28;20448;-83
2021/07/04 00:43:31;;;;;;;25.13;18.08;;;18.10;98.80;;;;;;5012834;28;20034;-84
2021/07/04 00:45:57;;;;;;;27.48;17.63;;;18.10;98.80;;;;;;4989641;28;20445;-83
2021/07/04 00:48:23;;;;;;;26.00;17.90;;;18.10;98.80;;;;;;4997289;28;20033;-83
2021/07/04 00:50:50;;;;;;;28.70;19.02;;;18.10;98.90;;;;;;4981089;28;20060;-83
2021/07/04 00:53:16;;;;;;;27.65;20.10;;;18.10;99.00;;;;;;4992116;28;20120;-83
2021/07/04 00:55:42;;;;;;;30.95;19.92;;;18.10;99.10;;;;;;4980599;28;20069;-83
2021/07/04 00:58:08;;;;;;;25.63;18.60;;;18.00;99.10;;;;;;5012933;28;20455;-83
2021/07/04 01:00:37;;;;;;;32.75;21.45;;;18.00;99.10;;;;;;4992546;28;20063;-83
2021/07/04 01:03:03;;;;;;;33.97;21.63;;;18.00;99.30;;;;;;5012202;28;20556;-83
2021/07/04 01:05:31;;;;;;;30.77;19.90;;;18.00;99.40;;;;;;4996518;28;20083;-84
2021/07/04 01:07:57;;;;;;;26.35;18.48;;;18.00;99.40;;;;;;5012872;28;20042;-84
2021/07/04 01:10:25;;;;;;;27.92;20.17;;;18.00;99.40;;;;;;4977265;28;20472;-83
2021/07/04 01:12:53;;;;;;;26.33;19.48;;;18.00;99.40;;;;;;5011465;28;20068;-84
2021/07/04 01:15:25;;;;;;;28.85;20.08;;;18.00;99.40;;;;;;5011251;28;20060;-84
2021/07/04 01:17:53;;;;;;;32.63;20.70;;;18.00;99.50;;;;;;4995244;28;20056;-84
2021/07/04 01:20:20;;;;;;;36.95;18.92;;;18.00;99.60;;;;;;5011653;28;20032;-84
2021/07/04 01:23:05;;;;;;;26.48;19.90;;;17.90;99.60;;;;;;5010913;28;20049;-84
2021/07/04 01:25:34;;;;;;;34.13;20.08;;;18.00;99.60;;;;;;5011716;28;20213;-84
2021/07/04 01:28:02;;;;;;;21.63;18.08;;;18.00;99.60;;;;;;5011670;28;20079;-84
2021/07/04 01:30:28;;;;;;;29.10;19.48;;;17.90;99.60;;;;;;4995530;28;20040;-85
2021/07/04 01:32:55;;;;;;;23.75;18.58;;;18.00;99.60;;;;;;5011819;28;20104;-83
2021/07/04 01:35:22;;;;;;;29.17;19.77;;;17.90;99.50;;;;;;4979103;28;20036;-84
2021/07/04 01:37:47;;;;;;;29.80;20.23;;;17.90;99.60;;;;;;5027557;28;20087;-83
2021/07/04 01:40:14;;;;;;;25.77;18.92;;;17.90;99.70;;;;;;4998598;28;20041;-84
2021/07/04 01:42:43;;;;;;;21.83;17.13;;;17.90;99.70;;;;;;5000138;28;20044;-84
2021/07/04 01:45:11;;;;;;;22.70;17.27;;;17.90;99.70;;;;;;5033329;28;20148;-84
2021/07/04 01:47:38;;;;;;;25.70;20.02;;;17.90;99.60;;;;;;5000366;28;20404;-84
2021/07/04 01:50:07;;;;;;;28.00;21.30;;;17.90;99.60;;;;;;4999776;28;20452;-84
2021/07/04 01:52:34;;;;;;;31.70;21.33;;;17.90;99.70;;;;;;5016015;28;20045;-84
2021/07/04 01:55:00;;;;;;;28.55;20.88;;;17.90;99.70;;;;;;5014592;28;20033;-84
2021/07/04 01:57:26;;;;;;;26.55;21.15;;;17.90;99.70;;;;;;4999240;28;20095;-84
2021/07/04 01:59:53;;;;;;;29.42;22.15;;;17.90;99.70;;;;;;4983045;28;20038;-84
2021/07/04 02:02:20;;;;;;;26.48;20.77;;;17.80;99.80;;;;;;5001205;28;20427;-84
2021/07/04 02:04:46;;;;;;;31.75;22.10;;;17.80;99.80;;;;;;5000925;28;20116;-84
2021/07/04 02:07:19;;;;;;;27.05;20.60;;;17.80;99.80;;;;;;4999549;28;20455;-84
2021/07/04 02:09:49;;;;;;;30.30;22.10;;;17.80;99.90;;;;;;4998098;28;20061;-84
2021/07/04 02:12:17;;;;;;;35.83;23.80;;;17.80;99.90;;;;;;4991947;28;20041;-83
2021/07/04 02:14:44;;;;;;;31.55;22.65;;;17.80;99.90;;;;;;5014646;28;20410;-84
2021/07/04 02:17:10;;;;;;;34.22;22.67;;;17.70;99.90;;;;;;5014770;28;20026;-83
2021/07/04 02:19:38;;;;;;;31.60;23.92;;;17.70;99.90;;;;;;5015134;28;20781;-83
2021/07/04 02:22:05;;;;;;;29.48;21.27;;;17.70;99.90;;;;;;4996698;28;20578;-84
2021/07/04 02:24:32;;;;;;;30.00;22.45;;;17.70;99.90;;;;;;5006285;28;20033;-84
2021/07/04 02:26:59;;;;;;;30.65;22.65;;;17.70;99.90;;;;;;5031585;28;20034;-84
2021/07/04 02:29:25;;;;;;;39.95;24.60;;;17.70;99.90;;;;;;4998611;28;20124;-84
2021/07/04 02:31:50;;;;;;;30.48;23.90;;;17.70;99.90;;;;;;5000364;28;20049;-83
2021/07/04 02:34:17;;;;;;;36.75;24.80;;;17.60;99.90;;;;;;5001140;28;20106;-84
2021/07/04 02:36:44;;;;;;;32.15;23.83;;;17.70;99.90;;;;;;5017379;28;20094;-84
2021/07/04 02:39:13;;;;;;;29.90;22.10;;;17.60;99.90;;;;;;5014819;28;20485;-84
2021/07/04 02:41:39;;;;;;;36.03;25.45;;;17.70;99.90;;;;;;5030045;28;20107;-83
2021/07/04 02:44:05;;;;;;;43.45;29.17;;;17.60;99.90;;;;;;5017682;28;20057;-84
2021/07/04 02:46:31;;;;;;;35.53;26.30;;;17.70;99.90;;;;;;5012997;28;20030;-84
2021/07/04 02:48:58;;;;;;;39.65;27.45;;;17.60;99.90;;;;;;5001377;28;20084;-84
2021/07/04 02:51:24;;;;;;;38.30;26.90;;;17.60;99.90;;;;;;5035132;28;20045;-84
2021/07/04 02:53:49;;;;;;;40.45;27.67;;;17.60;99.90;;;;;;5004377;28;20041;-85
2021/07/04 02:56:15;;;;;;;39.67;27.45;;;17.60;99.90;;;;;;5025831;28;20034;-84
2021/07/04 02:58:41;;;;;;;52.58;29.98;;;17.60;99.90;;;;;;5012042;28;20037;-85
2021/07/04 03:01:07;;;;;;;35.22;25.23;;;17.60;99.90;;;;;;4995882;28;20037;-84
2021/07/04 03:03:33;;;;;;;34.53;26.10;;;17.60;99.90;;;;;;5013837;28;20156;-84
2021/07/04 03:05:59;;;;;;;31.58;24.15;;;17.60;99.90;;;;;;5009424;28;20038;-84
2021/07/04 03:08:25;;;;;;;32.00;23.50;;;17.60;99.90;;;;;;4992845;28;20029;-84
2021/07/04 03:10:51;;;;;;;34.40;24.15;;;17.60;99.90;;;;;;4994920;28;20125;-84
2021/07/04 03:13:17;;;;;;;43.90;30.48;;;17.60;99.90;;;;;;4990058;28;20072;-84
2021/07/04 03:15:43;;;;;;;34.78;27.15;;;17.60;99.90;;;;;;5002089;28;20045;-84
2021/07/04 03:18:09;;;;;;;42.83;30.80;;;17.60;99.90;;;;;;5004560;28;20033;-84
2021/07/04 03:20:35;;;;;;;43.00;29.65;;;17.60;99.90;;;;;;5005203;28;20037;-85
2021/07/04 03:23:01;;;;;;;42.35;29.38;;;17.60;99.90;;;;;;4988127;28;20034;-84
2021/07/04 03:25:27;;;;;;;40.92;27.95;;;17.60;99.90;;;;;;4988575;28;20048;-83
2021/07/04 03:27:53;;;;;;;41.83;28.70;;;17.60;99.90;;;;;;5005065;28;20518;-85
2021/07/04 03:30:21;;;;;;;52.88;32.90;;;17.60;99.90;;;;;;5006062;28;20028;-84
2021/07/04 03:32:49;;;;;;;40.50;28.55;;;17.60;99.90;;;;;;5038366;28;20049;-84
2021/07/04 03:35:15;;;;;;;39.50;29.15;;;17.60;99.90;;;;;;4983981;28;20046;-84
2021/07/04 03:37:42;;;;;;;38.80;28.83;;;17.60;99.90;;;;;;5031323;28;20123;-84
2021/07/04 03:40:11;;;;;;;47.03;30.52;;;17.60;99.90;;;;;;5018909;28;20041;-84
2021/07/04 03:42:37;;;;;;;39.70;29.60;;;17.60;99.90;;;;;;5022843;28;20068;-84
2021/07/04 03:45:05;;;;;;;35.20;26.75;;;17.60;99.90;;;;;;5001264;28;20369;-84
2021/07/04 03:47:31;;;;;;;47.08;30.98;;;17.60;99.90;;;;;;5002027;28;20033;-83
2021/07/04 03:49:59;;;;;;;46.75;32.40;;;17.60;99.90;;;;;;5002182;28;20041;-83
2021/07/04 03:52:26;;;;;;;45.22;31.05;;;17.60;99.90;;;;;;4986200;28;20040;-84
2021/07/04 03:54:52;;;;;;;46.35;31.65;;;17.60;99.90;;;;;;5000569;28;20041;-84
2021/07/04 03:57:23;;;;;;;45.92;30.20;;;17.60;99.90;;;;;;5015096;28;20080;-84
2021/07/04 03:59:57;;;;;;;50.40;32.42;;;17.60;99.90;;;;;;5012654;28;20484;-84
2021/07/04 04:02:24;;;;;;;46.10;30.67;;;17.60;99.90;;;;;;5031080;28;20111;-83
2021/07/04 04:04:57;;;;;;;45.30;31.13;;;17.60;99.90;;;;;;5004917;28;20034;-84
2021/07/04 04:07:37;;;;;;;47.25;31.50;;;17.60;99.90;;;;;;4999927;28;20055;-84
2021/07/04 04:10:05;;;;;;;49.17;33.53;;;17.60;99.90;;;;;;4985131;28;20543;-84
2021/07/04 04:12:31;;;;;;;46.80;32.45;;;17.60;99.90;;;;;;5014316;28;20401;-85
2021/07/04 04:14:56;;;;;;;48.80;31.02;;;17.60;99.90;;;;;;5006204;28;20048;-85
2021/07/04 04:17:22;;;;;;;47.40;31.15;;;17.60;99.90;;;;;;5003617;28;20053;-86
2021/07/04 04:19:48;;;;;;;44.78;31.15;;;17.60;99.90;;;;;;5004272;28;20497;-86
2021/07/04 04:22:14;;;;;;;54.47;32.28;;;17.60;99.90;;;;;;5013753;28;20067;-85
2021/07/04 04:24:40;;;;;;;47.97;31.58;;;17.60;99.90;;;;;;5005155;28;20045;-85
2021/07/04 04:27:06;;;;;;;45.10;31.98;;;17.60;99.90;;;;;;5021960;28;20038;-85
2021/07/04 04:29:33;;;;;;;53.45;33.00;;;17.60;99.90;;;;;;5020873;28;20038;-84
2021/07/04 04:31:59;;;;;;;54.97;34.25;;;17.60;99.90;;;;;;5018065;28;20049;-85
2021/07/04 04:34:25;;;;;;;52.83;33.38;;;17.60;99.90;;;;;;5006327;28;20029;-85
2021/07/04 04:36:50;;;;;;;50.78;31.67;;;17.60;99.90;;;;;;5002086;28;20106;-85
2021/07/04 04:39:16;;;;;;;47.42;30.60;;;17.60;99.90;;;;;;5001495;28;20451;-86
2021/07/04 04:41:42;;;;;;;49.22;32.00;;;17.60;99.90;;;;;;5006174;28;20072;-85
2021/07/04 04:44:08;;;;;;;53.55;32.80;;;17.60;99.90;;;;;;4990320;28;20068;-84
2021/07/04 04:46:34;;;;;;;52.42;32.35;;;17.60;99.90;;;;;;5007468;28;20093;-85
2021/07/04 04:49:00;;;;;;;50.33;32.20;;;17.60;99.90;;;;;;5001215;28;20033;-85
2021/07/04 04:51:26;;;;;;;51.75;32.67;;;17.60;99.90;;;;;;5015890;28;20041;-86
2021/07/04 04:53:52;;;;;;;53.05;32.35;;;17.60;99.90;;;;;;5001180;28;20061;-85
2021/07/04 04:56:17;;;;;;;45.53;29.58;;;17.60;99.90;;;;;;5003910;28;20106;-84
2021/07/04 04:58:44;;;;;;;39.22;27.55;;;17.70;99.90;;;;;;5004004;28;20036;-84
2021/07/04 05:01:11;;;;;;;41.75;27.73;;;17.60;99.90;;;;;;5017405;28;20092;-85
2021/07/04 05:03:36;;;;;;;36.90;24.70;;;17.70;99.90;;;;;;5012402;28;20064;-85
2021/07/04 05:06:03;;;;;;;29.35;23.40;;;17.70;99.90;;;;;;4999307;28;20120;-85
2021/07/04 05:08:30;;;;;;;38.97;24.23;;;17.70;99.90;;;;;;5001613;28;20053;-86
2021/07/04 05:10:56;;;;;;;35.65;24.45;;;17.70;99.90;;;;;;5020830;28;20053;-86
2021/07/04 05:13:22;;;;;;;39.30;25.08;;;17.70;99.90;;;;;;5014494;28;20294;-86
2021/07/04 05:15:48;;;;;;;39.83;26.38;;;17.70;99.90;;;;;;5028602;28;20059;-86
2021/07/04 05:18:14;;;;;;;38.47;27.02;;;17.70;99.90;;;;;;5009664;28;20081;-85
2021/07/04 05:20:39;;;;;;;39.50;27.73;;;17.70;99.90;;;;;;5009448;28;20048;-85
2021/07/04 05:23:05;;;;;;;42.95;27.48;;;17.70;99.90;;;;;;5040482;28;20044;-86
2021/07/04 05:25:31;;;;;;;37.33;25.73;;;17.70;99.90;;;;;;5005738;28;20048;-86
2021/07/04 05:27:57;;;;;;;35.17;25.13;;;17.70;99.90;;;;;;5017177;28;20040;-85
2021/07/04 05:30:23;;;;;;;46.90;30.58;;;17.70;99.90;;;;;;4992193;28;20065;-85
2021/07/04 05:32:48;;;;;;;37.47;26.55;;;17.70;99.90;;;;;;5004904;28;20056;-86
2021/07/04 05:35:14;;;;;;;43.15;29.63;;;17.70;99.90;;;;;;5002778;28;20037;-85
2021/07/04 05:37:40;;;;;;;46.20;29.48;;;17.80;99.90;;;;;;4986863;28;20042;-85
2021/07/04 05:40:14;;;;;;;41.50;28.33;;;17.80;99.90;;;;;;5001085;28;20041;-84
2021/07/04 05:42:42;;;;;;;41.90;29.73;;;17.80;99.90;;;;;;5019581;28;20052;-85
2021/07/04 05:45:19;;;;;;;48.15;30.60;;;17.80;99.90;;;;;;5000740;28;20025;-85
2021/07/04 05:47:45;;;;;;;48.22;30.75;;;17.90;99.90;;;;;;5013147;28;20262;-84
2021/07/04 05:50:11;;;;;;;39.75;29.38;;;17.90;99.90;;;;;;4999636;28;20503;-86
2021/07/04 05:52:37;;;;;;;43.72;29.02;;;18.00;99.90;;;;;;5000504;28;20355;-85
2021/07/04 05:55:03;;;;;;;45.70;30.88;;;18.00;99.90;;;;;;4992528;28;20444;-84
2021/07/04 05:57:29;;;;;;;32.38;25.80;;;18.10;99.90;;;;;;5016218;28;20034;-84
2021/07/04 05:59:55;;;;;;;39.65;27.55;;;18.10;99.90;;;;;;4985660;28;20045;-85
2021/07/04 06:02:21;;;;;;;41.63;29.38;;;18.20;99.90;;;;;;4996289;28;20044;-85
2021/07/04 06:04:46;;;;;;;38.00;27.02;;;18.30;99.90;;;;;;4988176;28;20049;-85
2021/07/04 06:07:13;;;;;;;32.80;25.92;;;18.30;99.90;;;;;;5002990;28;20033;-85
2021/07/04 06:09:39;;;;;;;33.47;25.48;;;18.40;99.90;;;;;;4999285;28;20036;-86
2021/07/04 06:12:04;;;;;;;35.15;25.38;;;18.40;99.90;;;;;;5011020;28;20464;-85
2021/07/04 06:14:30;;;;;;;32.67;23.52;;;18.50;99.90;;;;;;5019808;28;20025;-84
2021/07/04 06:16:56;;;;;;;31.83;23.42;;;18.50;99.90;;;;;;4992838;28;20037;-84
2021/07/04 06:19:22;;;;;;;27.80;21.42;;;18.50;99.90;;;;;;5007561;28;20029;-85
2021/07/04 06:21:47;;;;;;;28.27;21.77;;;18.50;99.90;;;;;;4985590;28;20048;-85
2021/07/04 06:24:13;;;;;;;28.55;21.48;;;18.40;99.90;;;;;;4990473;28;20048;-84
2021/07/04 06:26:39;;;;;;;25.92;21.60;;;18.40;99.90;;;;;;4997184;28;20034;-85
2021/07/04 06:29:05;;;;;;;26.00;20.88;;;18.40;99.90;;;;;;4998659;28;20038;-84
2021/07/04 06:31:31;;;;;;;28.67;21.02;;;18.40;99.90;;;;;;4986275;28;20064;-85
2021/07/04 06:33:57;;;;;;;26.55;20.20;;;18.40;99.90;;;;;;4998307;28;20033;-85
2021/07/04 06:36:27;;;;;;;29.20;21.75;;;18.40;99.90;;;;;;4991047;28;20120;-85
2021/07/04 06:38:55;;;;;;;29.95;22.15;;;18.40;99.90;;;;;;4984032;28;20443;-85
2021/07/04 06:41:21;;;;;;;27.35;20.60;;;18.40;99.90;;;;;;5037396;28;20029;-84
2021/07/04 06:43:47;;;;;;;26.58;20.17;;;18.40;99.90;;;;;;5006466;28;20021;-82
2021/07/04 06:46:13;;;;;;;25.25;19.63;;;18.40;99.90;;;;;;5028549;28;20085;-82
2021/07/04 06:48:38;;;;;;;22.77;17.88;;;18.40;99.90;;;;;;5010531;28;20029;-83
2021/07/04 06:51:05;;;;;;;24.15;18.73;;;18.40;99.90;;;;;;5012080;28;20107;-83
2021/07/04 06:53:31;;;;;;;24.67;19.33;;;18.40;99.90;;;;;;5026997;28;20083;-82
2021/07/04 06:55:57;;;;;;;28.17;21.27;;;18.40;99.90;;;;;;5045624;28;20053;-82
2021/07/04 06:58:23;;;;;;;24.75;19.88;;;18.40;99.90;;;;;;5027539;28;20033;-82
2021/07/04 07:00:49;;;;;;;24.48;19.60;;;18.40;99.90;;;;;;4994709;28;20037;-82
2021/07/04 07:03:15;;;;;;;24.00;19.08;;;18.40;99.90;;;;;;5010042;28;20029;-82
2021/07/04 07:05:41;;;;;;;27.17;19.45;;;18.40;99.90;;;;;;5024635;28;20034;-82
2021/07/04 07:08:07;;;;;;;26.92;19.52;;;18.40;99.90;;;;;;5006913;28;20042;-82
2021/07/04 07:10:33;;;;;;;25.88;19.17;;;18.50;99.90;;;;;;5008648;28;20547;-82
2021/07/04 07:12:59;;;;;;;22.63;18.63;;;18.50;99.90;;;;;;4994150;28;20472;-82
2021/07/04 07:15:25;;;;;;;21.90;18.55;;;18.40;99.90;;;;;;4984677;28;20029;-82
2021/07/04 07:17:51;;;;;;;23.85;18.48;;;18.40;99.90;;;;;;4984300;28;20370;-82
2021/07/04 07:20:17;;;;;;;24.48;18.20;;;18.40;99.90;;;;;;4990690;28;20038;-83
2021/07/04 07:22:44;;;;;;;26.50;17.73;;;18.40;99.90;;;;;;4983074;28;20112;-83
2021/07/04 07:25:10;;;;;;;34.53;20.88;;;18.50;99.90;;;;;;4997189;28;20113;-83
2021/07/04 07:27:36;;;;;;;26.05;17.52;;;18.50;99.90;;;;;;4997320;28;20157;-83
2021/07/04 07:30:05;;;;;;;25.55;17.88;;;18.50;99.90;;;;;;5001739;28;20038;-82
2021/07/04 07:32:30;;;;;;;25.27;20.40;;;18.50;99.90;;;;;;5036352;28;20068;-82
2021/07/04 07:34:56;;;;;;;28.67;21.73;;;18.50;99.90;;;;;;5010178;28;20033;-83
2021/07/04 07:37:23;;;;;;;29.75;19.80;;;18.60;99.90;;;;;;4992929;28;20041;-83
2021/07/04 07:39:49;;;;;;;29.27;20.05;;;18.60;99.90;;;;;;5011106;28;20042;-83
2021/07/04 07:42:15;;;;;;;31.08;18.63;;;18.60;99.90;;;;;;5026171;28;20052;-83
2021/07/04 07:44:42;;;;;;;25.65;19.23;;;18.60;99.90;;;;;;4993889;28;20381;-83
2021/07/04 07:47:09;;;;;;;23.38;17.00;;;18.70;99.90;;;;;;5008468;28;20514;-83
2021/07/04 07:49:35;;;;;;;20.15;15.82;;;18.70;99.90;;;;;;5006267;28;20113;-82
2021/07/04 07:52:01;;;;;;;22.20;17.40;;;18.80;99.90;;;;;;5022417;28;20095;-82
2021/07/04 07:54:27;;;;;;;22.75;15.90;;;18.90;99.90;;;;;;4989615;28;20033;-83
2021/07/04 07:56:54;;;;;;;22.35;16.50;;;19.00;99.90;;;;;;5019831;28;20042;-83
2021/07/04 07:59:20;;;;;;;20.13;15.75;;;19.00;99.90;;;;;;5002777;28;20589;-83
2021/07/04 08:01:47;;;;;;;16.13;13.50;;;19.10;99.90;;;;;;4985496;28;20077;-82
2021/07/04 08:04:12;;;;;;;19.58;15.23;;;19.10;99.90;;;;;;5017517;28;20041;-83
2021/07/04 08:06:39;;;;;;;20.42;16.20;;;19.10;99.90;;;;;;5020161;28;20056;-83
2021/07/04 08:09:06;;;;;;;22.27;17.05;;;19.20;99.90;;;;;;4985306;28;20408;-83
2021/07/04 08:11:32;;;;;;;21.88;17.77;;;19.20;99.90;;;;;;5018779;28;20411;-83
2021/07/04 08:13:59;;;;;;;22.92;17.88;;;19.20;99.90;;;;;;5017850;28;20534;-83
2021/07/04 08:16:25;;;;;;;22.88;19.35;;;19.20;99.90;;;;;;5035742;28;20042;-83
2021/07/04 08:18:51;;;;;;;25.65;20.00;;;19.20;99.90;;;;;;5017837;28;20090;-83
2021/07/04 08:21:17;;;;;;;23.23;19.73;;;19.30;99.90;;;;;;4984188;28;20052;-83
2021/07/04 08:23:43;;;;;;;22.27;18.35;;;19.30;99.90;;;;;;5033995;28;20037;-83
2021/07/04 08:26:09;;;;;;;22.83;17.58;;;19.40;99.90;;;;;;4996349;28;20036;-84
2021/07/04 08:28:36;;;;;;;22.55;16.38;;;19.40;99.90;;;;;;4979839;28;20041;-83
2021/07/04 08:31:02;;;;;;;14.02;12.05;;;19.40;99.90;;;;;;4996671;28;20321;-84
2021/07/04 08:33:28;;;;;;;18.88;14.45;;;19.40;99.90;;;;;;4979060;28;20120;-83
2021/07/04 08:35:54;;;;;;;17.40;13.82;;;19.50;99.90;;;;;;5013106;28;20500;-84
2021/07/04 08:38:20;;;;;;;16.80;13.75;;;19.50;99.70;;;;;;4993798;28;20042;-83
2021/07/04 08:40:46;;;;;;;21.67;14.48;;;19.50;99.70;;;;;;4993617;28;20563;-83
2021/07/04 08:43:26;;;;;;;25.05;14.23;;;19.50;99.80;;;;;;4977152;28;20038;-83
2021/07/04 08:45:52;;;;;;;22.02;13.82;;;19.60;99.80;;;;;;4993729;28;20065;-84
2021/07/04 08:48:18;;;;;;;16.08;13.27;;;19.50;99.70;;;;;;4977853;28;20136;-83
2021/07/04 08:50:44;;;;;;;14.75;11.95;;;19.50;99.40;;;;;;4978341;28;20194;-83
2021/07/04 08:53:10;;;;;;;12.05;10.52;;;19.50;99.50;;;;;;4964655;28;20057;-84
2021/07/04 08:55:36;;;;;;;13.02;11.60;;;19.50;99.00;;;;;;4985797;28;20403;-83
2021/07/04 08:58:01;;;;;;;17.15;13.18;;;19.50;99.00;;;;;;4995135;28;20087;-83
2021/07/04 09:00:27;;;;;;;15.85;13.35;;;19.50;99.20;;;;;;5029633;28;20029;-84
2021/07/04 09:02:53;;;;;;;18.48;13.40;;;19.50;99.30;;;;;;4990201;28;20034;-84
2021/07/04 09:05:20;;;;;;;18.67;15.00;;;19.50;99.20;;;;;;4996198;28;20049;-84
2021/07/04 09:07:46;;;;;;;16.08;13.40;;;19.50;99.40;;;;;;5011957;28;20033;-84
2021/07/04 09:10:19;;;;;;;16.02;13.38;;;19.60;99.40;;;;;;5010384;28;20045;-84
2021/07/04 09:12:51;;;;;;;16.55;13.70;;;19.60;99.20;;;;;;5012626;28;20515;-84
2021/07/04 09:15:29;;;;;;;16.08;13.70;;;19.70;98.90;;;;;;5003414;28;20038;-87
2021/07/04 09:18:01;;;;;;;15.02;13.50;;;19.80;98.90;;;;;;4996518;28;20029;-86
2021/07/04 09:20:29;;;;;;;17.83;12.90;;;19.90;98.70;;;;;;5012813;28;20052;-88
2021/07/04 09:22:57;;;;;;;19.95;12.90;;;19.90;98.50;;;;;;5012512;28;20499;-85
2021/07/04 09:25:25;;;;;;;16.45;12.93;;;20.00;98.20;;;;;;4977702;28;20050;-85
2021/07/04 09:28:10;;;;;;;14.88;11.73;;;20.00;98.00;;;;;;5009181;28;20049;-86
2021/07/04 09:30:44;;;;;;;13.50;12.02;;;20.00;97.90;;;;;;5016804;28;20029;-86
2021/07/04 09:33:13;;;;;;;11.93;10.82;;;20.00;97.90;;;;;;5012657;28;20068;-87
2021/07/04 09:35:39;;;;;;;11.82;10.63;;;20.20;97.50;;;;;;5012686;28;20029;-85
2021/07/04 09:38:15;;;;;;;12.82;10.95;;;20.20;97.40;;;;;;5011171;28;20116;-86
2021/07/04 09:40:41;;;;;;;11.48;10.38;;;20.30;97.30;;;;;;4982162;28;20176;-86
2021/07/04 09:43:14;;;;;;;12.65;10.60;;;20.40;97.10;;;;;;5012445;28;20053;-84
2021/07/04 09:45:42;;;;;;;13.30;12.00;;;20.50;96.80;;;;;;5018419;28;20025;-86
2021/07/04 09:48:08;;;;;;;12.23;10.93;;;20.50;96.70;;;;;;5017979;28;20033;-87
2021/07/04 09:50:44;;;;;;;13.93;11.77;;;20.50;96.50;;;;;;4997836;28;20452;-86
2021/07/04 09:53:09;;;;;;;14.13;11.65;;;20.50;96.70;;;;;;5014072;28;20029;-85
2021/07/04 09:55:36;;;;;;;20.63;12.30;;;20.60;96.70;;;;;;4994049;28;20037;-86
2021/07/04 09:58:11;;;;;;;12.25;10.77;;;20.60;96.90;;;;;;5020246;28;20045;-86
2021/07/04 10:00:43;;;;;;;11.63;10.40;;;20.60;96.50;;;;;;5013226;28;20040;-86
2021/07/04 10:03:19;;;;;;;10.98;9.90;;;20.60;96.20;;;;;;5014030;28;20041;-85
2021/07/04 10:06:00;;;;;;;11.68;10.48;;;20.60;96.00;;;;;;5033308;28;20373;-86
2021/07/04 10:08:28;;;;;;;11.55;10.35;;;20.60;95.80;;;;;;4999013;28;20088;-85
2021/07/04 10:11:15;;;;;;;16.55;11.88;;;20.70;95.40;;;;;;5012058;28;20044;-86
2021/07/04 10:13:46;;;;;;;11.57;10.32;;;20.70;95.70;;;;;;5030768;28;20103;-86
2021/07/04 10:16:14;;;;;;;11.50;9.70;;;20.80;95.40;;;;;;5013578;28;20490;-86
2021/07/04 10:18:43;;;;;;;11.45;9.20;;;20.80;95.10;;;;;;5011809;28;20042;-86
2021/07/04 10:21:09;;;;;;;10.80;9.65;;;20.90;94.90;;;;;;5014255;28;20515;-87
2021/07/04 10:23:36;;;;;;;12.32;11.02;;;21.00;94.80;;;;;;5014134;28;20053;-84
2021/07/04 10:26:03;;;;;;;10.88;9.65;;;21.00;94.70;;;;;;4988391;28;20096;-87
2021/07/04 10:28:36;;;;;;;12.77;9.02;;;21.00;94.50;;;;;;4994947;28;20037;-86
2021/07/04 10:31:07;;;;;;;10.65;9.55;;;21.10;94.60;;;;;;5029894;28;20463;-86
2021/07/04 10:33:34;;;;;;;14.30;9.60;;;21.10;94.50;;;;;;5011641;28;20044;-87
2021/07/04 10:36:08;;;;;;;10.57;8.55;;;21.00;94.90;;;;;;5011262;28;20047;-88
2021/07/04 10:38:46;;;;;;;9.57;8.27;;;21.00;94.70;;;;;;5005560;28;20058;-86
2021/07/04 10:41:17;;;;;;;9.05;7.95;;;21.00;94.60;;;;;;5039639;28;20489;-87
2021/07/04 10:44:05;;;;;;;10.23;8.13;;;21.10;94.30;;;;;;5009086;28;20064;-87
2021/07/04 10:46:41;;;;;;;9.95;8.40;;;21.10;94.10;;;;;;5023626;28;20029;-90
2021/07/04 10:49:12;;;;;;;10.40;9.00;;;21.10;94.30;;;;;;5005889;28;20096;-86
2021/07/04 10:51:54;;;;;;;15.27;9.80;;;21.20;94.80;;;;;;4991436;28;20034;-89
2021/07/04 10:54:39;;;;;;;10.30;8.90;;;21.30;94.90;;;;;;5002285;28;20033;-86
2021/07/04 10:57:10;;;;;;;11.15;8.85;;;21.30;94.60;;;;;;5033263;28;20033;-88
2021/07/04 10:59:58;;;;;;;10.70;9.35;;;21.30;93.80;;;;;;5016298;28;20377;-88
2021/07/04 11:02:54;;;;;;;12.65;10.20;;;21.40;94.20;;;;;;5030963;28;20075;-87
2021/07/04 11:05:43;;;;;;;11.32;9.85;;;21.40;94.40;;;;;;5016063;28;20119;-86
2021/07/04 11:08:19;;;;;;;12.25;10.48;;;21.40;93.70;;;;;;5018957;28;20037;-87
2021/07/04 11:11:00;;;;;;;12.00;10.55;;;21.40;93.40;;;;;;5015010;28;20440;-89
2021/07/04 11:13:29;;;;;;;13.15;10.68;;;21.50;93.90;;;;;;5008811;28;20069;-85
2021/07/04 11:16:07;;;;;;;14.63;10.82;;;21.50;93.40;;;;;;5016940;28;20498;-90
2021/07/04 11:18:50;;;;;;;15.02;12.38;;;21.60;93.80;;;;;;5014207;28;20067;-87
2021/07/04 11:21:21;;;;;;;15.48;13.35;;;21.60;93.00;;;;;;5013564;28;20037;-86
2021/07/04 11:24:21;;;;;;;14.25;12.10;;;21.70;92.60;;;;;;4997635;28;20049;-86
2021/07/04 11:27:27;;;;;;;14.00;12.50;;;21.80;92.80;;;;;;5015428;28;20415;-88
2021/07/04 11:30:18;;;;;;;15.13;11.40;;;21.90;92.60;;;;;;5018274;28;20041;-84
2021/07/04 11:32:45;;;;;;;15.38;12.90;;;21.90;92.50;;;;;;5012928;28;20044;-85
2021/07/04 11:35:11;;;;;;;14.95;12.18;;;22.00;93.10;;;;;;4989520;28;20108;-85
2021/07/04 11:37:38;;;;;;;14.30;12.35;;;22.00;93.00;;;;;;5017327;28;20072;-85
2021/07/04 11:40:04;;;;;;;14.32;12.80;;;22.10;92.60;;;;;;4997965;28;20488;-85
2021/07/04 11:42:30;;;;;;;17.38;13.68;;;22.10;92.40;;;;;;4995861;28;20052;-86
2021/07/04 11:44:56;;;;;;;12.35;10.45;;;22.20;92.60;;;;;;4985926;28;20034;-84
2021/07/04 11:47:22;;;;;;;16.83;12.10;;;22.30;92.30;;;;;;4998673;28;20045;-84
2021/07/04 11:49:48;;;;;;;17.23;11.70;;;22.40;92.50;;;;;;4995683;28;20041;-89
2021/07/04 11:52:20;;;;;;;13.05;11.32;;;22.50;91.90;;;;;;5011301;28;20473;-85
2021/07/04 11:54:46;;;;;;;;;;;22.50;92.10;;;;;;5013225;28;20759;-84
2021/07/04 11:57:30;;;;;;;13.07;11.73;;;22.50;91.70;;;;;;5011746;28;19924;-84
2021/07/04 12:00:06;;;;;;;12.18;10.95;;;22.60;92.10;;;;;;5010484;28;20038;-85
2021/07/04 12:02:35;;;;;;;14.10;11.48;;;22.60;92.00;;;;;;5018634;28;20783;-83
2021/07/04 12:05:21;;;;;;;17.52;12.13;;;22.50;91.60;;;;;;5016078;28;20040;-85
2021/07/04 12:07:47;;;;;;;15.82;11.68;;;22.50;91.50;;;;;;5009213;28;20310;-85
2021/07/04 12:10:13;;;;;;;15.50;13.90;;;22.40;92.00;;;;;;4979827;28;20320;-86
2021/07/04 12:12:39;;;;;;;13.50;12.10;;;22.40;91.90;;;;;;4991705;28;20107;-86
2021/07/04 12:15:11;;;;;;;18.05;13.90;;;22.50;92.30;;;;;;5012239;28;20034;-86
2021/07/04 12:17:48;;;;;;;17.48;13.43;;;22.50;91.60;;;;;;5010454;28;20025;-86
2021/07/04 12:20:23;;;;;;;14.98;12.80;;;22.70;91.10;;;;;;5004707;28;20036;-85
2021/07/04 12:22:54;;;;;;;18.38;13.18;;;22.70;90.90;;;;;;5011200;28;20038;-86
2021/07/04 12:25:42;;;;;;;17.65;14.57;;;22.60;91.60;;;;;;5013073;28;20036;-86
2021/07/04 12:28:09;;;;;;;17.25;15.20;;;22.60;91.10;;;;;;5023960;28;20037;-85
2021/07/04 12:30:48;;;;;;;19.95;16.98;;;22.50;91.70;;;;;;5010729;28;20029;-87
2021/07/04 12:33:15;;;;;;;16.85;15.05;;;22.50;91.80;;;;;;5011264;28;20036;-86
2021/07/04 12:35:43;;;;;;;18.70;16.52;;;22.40;91.80;;;;;;4999457;28;20037;-86